Time;durP1;ratioP1;P1;durP2;ratioP2;P2;SDS_P1;SDS_P2;PMS_P1;PMS_P2;Temp;Humidity;BMP_temperature;BMP_pressure;BME280_temperature;BME280_humidity;BME280_pressure;Samples;Min_cycle;Max_cycle;Signal;HPM_P1;HPM_P2
2022/08/25 00:00:49;;;;;;;2.65;1.60;;;;;;;;;;4999448;28;20057;-85
2022/08/25 00:03:15;;;;;;;4.55;1.65;;;;;;;;;;4932235;28;20070;-85
2022/08/25 00:05:42;;;;;;;2.33;1.55;;;;;;;;;;4931465;28;20087;-84
2022/08/25 00:08:08;;;;;;;2.30;1.40;;;;;;;;;;5009444;28;20052;-85
2022/08/25 00:10:35;;;;;;;5.15;1.92;;;;;;;;;;5009727;28;20056;-85
2022/08/25 00:13:01;;;;;;;4.28;1.95;;;;;;;;;;4993564;28;20068;-84
2022/08/25 00:15:31;;;;;;;3.92;1.80;;;;;;;;;;4930841;28;20044;-85
2022/08/25 00:17:57;;;;;;;1.65;1.20;;;;;;;;;;4993362;28;20044;-85
2022/08/25 00:20:24;;;;;;;2.72;1.20;;;;;;;;;;4928540;28;20122;-85
2022/08/25 00:22:50;;;;;;;2.97;1.60;;;;;;;;;;4935366;28;20763;-85
2022/08/25 00:25:17;;;;;;;4.32;1.65;;;;;;;;;;4993748;28;20059;-84
2022/08/25 00:27:43;;;;;;;5.55;2.00;;;;;;;;;;4933483;28;20067;-85
2022/08/25 00:30:10;;;;;;;3.95;1.45;;;;;;;;;;5009568;28;20052;-84
2022/08/25 00:32:37;;;;;;;6.30;2.15;;;;;;;;;;4931489;28;20815;-84
2022/08/25 00:35:04;;;;;;;4.68;1.90;;;;;;;;;;4991884;28;20600;-84
2022/08/25 00:37:30;;;;;;;4.82;1.63;;;;;;;;;;4931974;28;20546;-85
2022/08/25 00:39:57;;;;;;;3.90;1.40;;;;;;;;;;4993330;28;20057;-84
2022/08/25 00:42:24;;;;;;;4.03;1.70;;;;;;;;;;5011446;28;20051;-84
2022/08/25 00:44:50;;;;;;;2.45;1.35;;;;;;;;;;4932886;28;20060;-84
2022/08/25 00:47:16;;;;;;;2.78;1.98;;;;;;;;;;4996066;28;20044;-85
2022/08/25 00:49:47;;;;;;;4.93;1.65;;;;;;;;;;4932284;28;20043;-84
2022/08/25 00:52:15;;;;;;;3.57;1.73;;;;;;;;;;4996795;28;20094;-84
2022/08/25 00:54:44;;;;;;;3.83;1.73;;;;;;;;;;4996461;28;20529;-84
2022/08/25 00:57:12;;;;;;;2.45;1.45;;;;;;;;;;5013389;28;20059;-84
2022/08/25 00:59:39;;;;;;;2.42;1.50;;;;;;;;;;5012086;28;20088;-84
2022/08/25 01:02:06;;;;;;;3.00;1.60;;;;;;;;;;5010110;28;20073;-84
2022/08/25 01:04:32;;;;;;;6.63;1.95;;;;;;;;;;5011719;28;20059;-85
2022/08/25 01:06:59;;;;;;;4.20;1.73;;;;;;;;;;4934060;28;20059;-85
2022/08/25 01:09:25;;;;;;;2.83;1.65;;;;;;;;;;5007176;28;20048;-85
2022/08/25 01:11:51;;;;;;;2.63;2.03;;;;;;;;;;4995645;28;21174;-85
2022/08/25 01:14:19;;;;;;;2.05;1.48;;;;;;;;;;4996648;28;20046;-85
2022/08/25 01:16:45;;;;;;;4.65;1.80;;;;;;;;;;5011906;28;20052;-85
2022/08/25 01:19:13;;;;;;;3.35;1.83;;;;;;;;;;4993758;28;20070;-84
2022/08/25 01:21:41;;;;;;;3.60;1.40;;;;;;;;;;4934677;28;20044;-84
2022/08/25 01:24:09;;;;;;;2.28;1.80;;;;;;;;;;4999131;28;20041;-84
2022/08/25 01:26:36;;;;;;;3.20;2.38;;;;;;;;;;5012501;28;20046;-86
2022/08/25 01:29:24;;;;;;;4.47;2.20;;;;;;;;;;5011599;28;20095;-84
2022/08/25 01:31:54;;;;;;;2.28;1.40;;;;;;;;;;5008459;28;20040;-83
2022/08/25 01:34:21;;;;;;;3.08;1.98;;;;;;;;;;5002251;28;20044;-84
2022/08/25 01:36:47;;;;;;;3.58;1.65;;;;;;;;;;4934514;28;20044;-85
2022/08/25 01:39:14;;;;;;;6.25;2.13;;;;;;;;;;4994852;28;20194;-85
2022/08/25 01:41:54;;;;;;;2.78;1.58;;;;;;;;;;4999905;28;20125;-84
2022/08/25 01:44:20;;;;;;;2.25;1.70;;;;;;;;;;4933837;28;20151;-84
2022/08/25 01:46:46;;;;;;;4.57;2.33;;;;;;;;;;5007063;28;20040;-85
2022/08/25 01:49:13;;;;;;;3.22;1.50;;;;;;;;;;4994961;28;20598;-85
2022/08/25 01:51:43;;;;;;;4.03;1.88;;;;;;;;;;4995119;28;20559;-84
2022/08/25 01:54:09;;;;;;;3.80;2.35;;;;;;;;;;4994870;28;20047;-85
2022/08/25 01:56:35;;;;;;;2.75;1.60;;;;;;;;;;5011869;28;20050;-85
2022/08/25 01:59:01;;;;;;;3.15;1.65;;;;;;;;;;5007236;28;20071;-85
2022/08/25 02:01:27;;;;;;;4.13;1.92;;;;;;;;;;5011353;28;20039;-84
2022/08/25 02:03:54;;;;;;;5.45;1.90;;;;;;;;;;5006064;28;20044;-84
2022/08/25 02:06:23;;;;;;;2.60;1.70;;;;;;;;;;4930437;28;20121;-85
2022/08/25 02:08:53;;;;;;;5.85;1.75;;;;;;;;;;5012764;28;20056;-85
2022/08/25 02:11:20;;;;;;;4.43;2.05;;;;;;;;;;4931089;28;20147;-85
2022/08/25 02:13:47;;;;;;;2.92;1.75;;;;;;;;;;5008785;28;20048;-84
2022/08/25 02:16:19;;;;;;;2.75;1.83;;;;;;;;;;4933030;28;20036;-84
2022/08/25 02:18:46;;;;;;;3.95;2.15;;;;;;;;;;5010632;28;20698;-85
2022/08/25 02:21:12;;;;;;;3.83;1.88;;;;;;;;;;5010399;28;20044;-84
2022/08/25 02:23:40;;;;;;;4.53;2.05;;;;;;;;;;4995207;28;20051;-85
2022/08/25 02:26:07;;;;;;;6.13;2.10;;;;;;;;;;4996447;28;20155;-85
2022/08/25 02:28:33;;;;;;;4.13;1.75;;;;;;;;;;5013762;28;20056;-84
2022/08/25 02:30:59;;;;;;;3.00;2.00;;;;;;;;;;5014384;28;20032;-85
2022/08/25 02:33:26;;;;;;;4.57;2.03;;;;;;;;;;5015883;28;20052;-85
2022/08/25 02:35:52;;;;;;;3.88;1.88;;;;;;;;;;5011923;28;20067;-84
2022/08/25 02:38:18;;;;;;;3.63;2.33;;;;;;;;;;5014402;28;20047;-85
2022/08/25 02:40:44;;;;;;;2.97;2.28;;;;;;;;;;5017528;28;20633;-84
2022/08/25 02:43:10;;;;;;;3.03;1.77;;;;;;;;;;5018842;28;20515;-85
2022/08/25 02:45:37;;;;;;;4.05;2.20;;;;;;;;;;4944547;28;20031;-84
2022/08/25 02:48:04;;;;;;;3.10;2.20;;;;;;;;;;5004031;28;20060;-86
2022/08/25 02:50:31;;;;;;;4.05;1.90;;;;;;;;;;4935829;28;20109;-84
2022/08/25 02:52:57;;;;;;;4.18;2.10;;;;;;;;;;4949594;28;20301;-85
2022/08/25 02:55:23;;;;;;;4.63;2.08;;;;;;;;;;5031490;28;20044;-85
2022/08/25 02:57:50;;;;;;;5.82;2.85;;;;;;;;;;5029327;28;20087;-84
2022/08/25 03:00:17;;;;;;;4.90;2.00;;;;;;;;;;5008793;28;20055;-85
2022/08/25 03:02:43;;;;;;;3.28;2.03;;;;;;;;;;5019924;28;20048;-85
2022/08/25 03:05:10;;;;;;;4.68;2.17;;;;;;;;;;5003733;28;20097;-85
2022/08/25 03:07:37;;;;;;;5.53;2.38;;;;;;;;;;4996507;28;20048;-85
2022/08/25 03:10:15;;;;;;;3.35;1.92;;;;;;;;;;4998060;28;20047;-85
2022/08/25 03:12:41;;;;;;;3.17;2.03;;;;;;;;;;4936314;28;20044;-85
2022/08/25 03:15:09;;;;;;;11.00;2.97;;;;;;;;;;5015236;28;20083;-85
2022/08/25 03:17:35;;;;;;;3.33;1.92;;;;;;;;;;5015765;28;20040;-84
2022/08/25 03:20:02;;;;;;;5.90;2.10;;;;;;;;;;5011958;28;20430;-85
2022/08/25 03:22:28;;;;;;;6.65;1.80;;;;;;;;;;4932947;28;20054;-85
2022/08/25 03:26:52;;;;;;;2.78;2.15;;;;;;;;;;5013099;28;21000;-85
2022/08/25 03:27:40;;;;;;;6.72;2.40;;;;;;;;;;4932054;28;20054;-84
2022/08/25 03:30:06;;;;;;;4.38;2.30;;;;;;;;;;4998462;28;20052;-85
2022/08/25 03:32:33;;;;;;;7.22;2.40;;;;;;;;;;4933497;28;20039;-85
2022/08/25 03:35:00;;;;;;;5.30;2.47;;;;;;;;;;5012952;28;20095;-85
2022/08/25 03:37:26;;;;;;;6.53;2.30;;;;;;;;;;4930252;28;20041;-85
2022/08/25 03:39:53;;;;;;;6.35;2.58;;;;;;;;;;5011897;28;20048;-85
2022/08/25 03:42:19;;;;;;;3.28;2.20;;;;;;;;;;5009357;28;20044;-85
2022/08/25 03:44:45;;;;;;;7.22;2.25;;;;;;;;;;5009245;28;20044;-85
2022/08/25 03:47:11;;;;;;;3.65;2.20;;;;;;;;;;5001292;28;20051;-85
2022/08/25 03:49:37;;;;;;;3.38;2.28;;;;;;;;;;5014317;28;20046;-84
2022/08/25 03:52:03;;;;;;;4.55;2.33;;;;;;;;;;4931945;28;20052;-84
2022/08/25 03:54:29;;;;;;;3.67;2.65;;;;;;;;;;5011967;28;20095;-84
2022/08/25 03:56:55;;;;;;;5.90;2.67;;;;;;;;;;4934108;28;20048;-85
2022/08/25 03:59:22;;;;;;;8.90;2.80;;;;;;;;;;5015783;28;20043;-84
2022/08/25 04:01:48;;;;;;;8.00;4.20;;;;;;;;;;4997031;28;20036;-84
2022/08/25 04:04:15;;;;;;;8.70;2.97;;;;;;;;;;5014192;28;20047;-84
2022/08/25 04:06:42;;;;;;;19.13;4.82;;;;;;;;;;5014658;28;20147;-85
2022/08/25 04:09:09;;;;;;;12.02;3.35;;;;;;;;;;4997731;28;20055;-85
2022/08/25 04:11:35;;;;;;;11.48;2.92;;;;;;;;;;4931777;28;20070;-84
2022/08/25 04:14:01;;;;;;;3.15;2.50;;;;;;;;;;4935429;28;20040;-84
2022/08/25 04:16:31;;;;;;;7.60;2.50;;;;;;;;;;4934347;28;20310;-85
2022/08/25 04:18:58;;;;;;;3.67;2.22;;;;;;;;;;5012625;28;20192;-85
2022/08/25 04:21:24;;;;;;;6.45;2.58;;;;;;;;;;5010997;28;20109;-84
2022/08/25 04:23:52;;;;;;;10.18;2.90;;;;;;;;;;4995293;28;20114;-84
2022/08/25 04:26:20;;;;;;;5.13;3.05;;;;;;;;;;4994040;28;20110;-85
2022/08/25 04:28:46;;;;;;;4.53;2.85;;;;;;;;;;5012000;28;20068;-84
2022/08/25 04:31:13;;;;;;;3.88;2.50;;;;;;;;;;5012731;28;20070;-84
2022/08/25 04:33:40;;;;;;;8.65;3.30;;;;;;;;;;4932040;28;20051;-85
2022/08/25 04:36:07;;;;;;;4.70;2.70;;;;;;;;;;4997388;28;20048;-84
2022/08/25 04:38:34;;;;;;;6.13;3.40;;;;;;;;;;4996433;28;20185;-84
2022/08/25 04:41:04;;;;;;;4.15;2.08;;;;;;;;;;5012924;28;20051;-85
2022/08/25 04:43:31;;;;;;;3.85;2.72;;;;;;;;;;4930852;28;20032;-84
2022/08/25 04:45:58;;;;;;;6.68;2.50;;;;;;;;;;5006801;28;20095;-85
2022/08/25 04:48:24;;;;;;;9.35;3.40;;;;;;;;;;4929382;28;20048;-85
2022/08/25 04:50:50;;;;;;;3.40;2.70;;;;;;;;;;5013421;28;20047;-85
2022/08/25 04:53:16;;;;;;;7.20;2.75;;;;;;;;;;4931531;28;20055;-85
2022/08/25 04:55:46;;;;;;;8.35;2.40;;;;;;;;;;5005356;28;20047;-88
2022/08/25 04:58:14;;;;;;;7.47;3.10;;;;;;;;;;4999685;28;20044;-86
2022/08/25 05:00:40;;;;;;;11.13;3.38;;;;;;;;;;5006194;28;20052;-86
2022/08/25 05:03:07;;;;;;;9.68;3.33;;;;;;;;;;4936506;28;20044;-87
2022/08/25 05:05:36;;;;;;;7.38;3.03;;;;;;;;;;5011635;28;20420;-87
2022/08/25 05:08:03;;;;;;;6.60;2.80;;;;;;;;;;5005700;28;20986;-87
2022/08/25 05:10:29;;;;;;;6.20;2.95;;;;;;;;;;5006069;28;20040;-87
2022/08/25 05:12:55;;;;;;;7.93;3.00;;;;;;;;;;4942390;28;20930;-89
2022/08/25 05:18:11;;;;;;;6.90;2.58;;;;;;;;;;4938917;28;20052;-85
2022/08/25 05:20:37;;;;;;;11.18;4.18;;;;;;;;;;5020219;28;20098;-83
2022/08/25 05:23:03;;;;;;;8.27;3.15;;;;;;;;;;5011110;28;20048;-84
2022/08/25 05:25:30;;;;;;;17.30;4.45;;;;;;;;;;5008492;28;20075;-85
2022/08/25 05:27:56;;;;;;;12.85;3.13;;;;;;;;;;5014580;28;20661;-86
2022/08/25 05:30:22;;;;;;;15.45;4.03;;;;;;;;;;4935297;28;20117;-86
2022/08/25 05:32:48;;;;;;;17.83;4.57;;;;;;;;;;4940497;28;20044;-86
2022/08/25 05:35:15;;;;;;;16.35;4.57;;;;;;;;;;4934482;28;20102;-86
2022/08/25 05:37:41;;;;;;;11.32;3.05;;;;;;;;;;4998274;28;20052;-86
2022/08/25 05:40:07;;;;;;;10.95;3.13;;;;;;;;;;5016725;28;20094;-85
2022/08/25 05:42:34;;;;;;;5.82;3.10;;;;;;;;;;5014723;28;20059;-86
2022/08/25 05:45:01;;;;;;;9.73;2.50;;;;;;;;;;5012278;28;20052;-86
2022/08/25 05:47:27;;;;;;;7.43;2.50;;;;;;;;;;4997050;28;20067;-86
2022/08/25 05:49:54;;;;;;;12.80;3.72;;;;;;;;;;5005388;28;20047;-87
2022/08/25 05:52:20;;;;;;;9.90;2.97;;;;;;;;;;5008602;28;20051;-86
2022/08/25 05:54:46;;;;;;;13.38;3.90;;;;;;;;;;5021290;28;20112;-86
2022/08/25 05:57:12;;;;;;;13.45;4.00;;;;;;;;;;5040108;28;20039;-86
2022/08/25 05:59:38;;;;;;;27.95;5.45;;;;;;;;;;5040528;28;20039;-88
2022/08/25 06:04:49;;;;;;;10.20;3.47;;;;;;;;;;4961282;28;20056;-87
2022/08/25 06:07:15;;;;;;;16.73;3.95;;;;;;;;;;5029433;28;20058;-87
2022/08/25 06:09:44;;;;;;;10.52;3.97;;;;;;;;;;5035004;28;20099;-87
2022/08/25 06:12:10;;;;;;;6.07;3.08;;;;;;;;;;5018003;28;20032;-87
2022/08/25 06:14:37;;;;;;;8.98;3.67;;;;;;;;;;5035091;28;20192;-87
2022/08/25 06:17:03;;;;;;;9.10;3.65;;;;;;;;;;5017753;28;20060;-86
2022/08/25 06:19:29;;;;;;;3.83;2.60;;;;;;;;;;5034701;28;20063;-86
2022/08/25 06:21:56;;;;;;;5.07;2.70;;;;;;;;;;5031122;28;20044;-86
2022/08/25 06:24:23;;;;;;;5.75;2.92;;;;;;;;;;5033484;28;20055;-86
2022/08/25 06:26:49;;;;;;;6.70;2.53;;;;;;;;;;4947559;28;20048;-86
2022/08/25 06:29:15;;;;;;;7.30;2.63;;;;;;;;;;5014299;28;21031;-86
2022/08/25 06:31:42;;;;;;;5.15;3.22;;;;;;;;;;5027027;28;20059;-85
2022/08/25 06:34:08;;;;;;;4.30;2.53;;;;;;;;;;5010808;28;20071;-86
2022/08/25 06:36:34;;;;;;;8.15;3.38;;;;;;;;;;5023944;28;20040;-86
2022/08/25 06:39:00;;;;;;;6.47;2.78;;;;;;;;;;5012877;28;20052;-85
2022/08/25 06:41:27;;;;;;;6.95;2.70;;;;;;;;;;5012542;28;20044;-85
2022/08/25 06:43:53;;;;;;;7.85;2.22;;;;;;;;;;5015427;28;20524;-86
2022/08/25 06:46:21;;;;;;;9.25;2.53;;;;;;;;;;4932416;28;20082;-86
2022/08/25 06:48:47;;;;;;;6.47;2.22;;;;;;;;;;4931926;28;20036;-86
2022/08/25 06:51:15;;;;;;;6.65;2.40;;;;;;;;;;4933703;28;20063;-85
2022/08/25 06:53:42;;;;;;;4.90;2.55;;;;;;;;;;5014960;28;20048;-85
2022/08/25 06:56:10;;;;;;;7.57;2.75;;;;;;;;;;4997329;28;20039;-86
2022/08/25 06:58:36;;;;;;;4.18;2.17;;;;;;;;;;4998987;28;20075;-85
2022/08/25 07:01:10;;;;;;;5.50;2.10;;;;;;;;;;4933361;28;20094;-85
2022/08/25 07:03:36;;;;;;;3.70;2.45;;;;;;;;;;5014497;28;20154;-86
2022/08/25 07:06:03;;;;;;;4.30;2.22;;;;;;;;;;5014184;28;20082;-85
2022/08/25 07:08:29;;;;;;;7.03;2.50;;;;;;;;;;5009683;28;20071;-86
2022/08/25 07:10:55;;;;;;;6.65;2.50;;;;;;;;;;4998608;28;20051;-86
2022/08/25 07:13:21;;;;;;;4.95;2.08;;;;;;;;;;4932199;28;20048;-86
2022/08/25 07:15:52;;;;;;;4.18;2.20;;;;;;;;;;5011608;28;20654;-86
2022/08/25 07:18:19;;;;;;;3.47;2.10;;;;;;;;;;5013933;28;20048;-86
2022/08/25 07:20:45;;;;;;;2.50;1.98;;;;;;;;;;5027612;28;20063;-86
2022/08/25 07:23:11;;;;;;;4.15;1.83;;;;;;;;;;5013569;28;20048;-85
2022/08/25 07:25:37;;;;;;;4.13;2.60;;;;;;;;;;4931159;28;20035;-86
2022/08/25 07:28:04;;;;;;;4.03;2.42;;;;;;;;;;5011828;28;20471;-86
2022/08/25 07:30:30;;;;;;;5.38;2.10;;;;;;;;;;5012066;28;20183;-86
2022/08/25 07:32:57;;;;;;;3.20;1.80;;;;;;;;;;5012419;28;20168;-85
2022/08/25 07:35:24;;;;;;;4.00;2.25;;;;;;;;;;4996111;28;21612;-86
2022/08/25 07:37:58;;;;;;;3.28;2.10;;;;;;;;;;4930829;28;20552;-85
2022/08/25 07:40:25;;;;;;;5.43;2.63;;;;;;;;;;4996956;28;20051;-87
2022/08/25 07:42:53;;;;;;;7.13;2.72;;;;;;;;;;4930790;28;20048;-86
2022/08/25 07:45:20;;;;;;;3.80;2.20;;;;;;;;;;4996658;28;20600;-85
2022/08/25 07:47:46;;;;;;;6.43;2.60;;;;;;;;;;4929406;28;20048;-87
2022/08/25 07:50:13;;;;;;;7.65;2.75;;;;;;;;;;5000753;28;20541;-86
2022/08/25 07:52:40;;;;;;;7.00;2.75;;;;;;;;;;5017897;28;20102;-86
2022/08/25 07:55:07;;;;;;;6.18;2.67;;;;;;;;;;4936887;28;20048;-86
2022/08/25 07:57:33;;;;;;;6.70;2.40;;;;;;;;;;5002089;28;20052;-86
2022/08/25 07:59:59;;;;;;;5.15;2.80;;;;;;;;;;4936704;28;20055;-86
2022/08/25 08:02:26;;;;;;;4.18;2.50;;;;;;;;;;5018978;28;20135;-87
2022/08/25 08:04:52;;;;;;;4.72;2.80;;;;;;;;;;5017763;28;20056;-86
2022/08/25 08:07:23;;;;;;;8.00;3.35;;;;;;;;;;5018328;28;20039;-87
2022/08/25 08:09:50;;;;;;;5.00;3.50;;;;;;;;;;5017055;28;20044;-87
2022/08/25 08:12:16;;;;;;;8.07;2.85;;;;;;;;;;5017616;28;20055;-87
2022/08/25 08:14:42;;;;;;;6.72;3.95;;;;;;;;;;5015161;28;20079;-87
2022/08/25 08:17:08;;;;;;;6.20;4.13;;;;;;;;;;5018239;28;20032;-85
2022/08/25 08:19:35;;;;;;;4.80;3.38;;;;;;;;;;5018247;28;20044;-85
2022/08/25 08:22:02;;;;;;;7.70;3.38;;;;;;;;;;5018979;28;20052;-84
2022/08/25 08:24:33;;;;;;;5.20;3.50;;;;;;;;;;5002346;28;20044;-85
2022/08/25 08:26:59;;;;;;;7.35;3.33;;;;;;;;;;4936138;28;20051;-85
2022/08/25 08:29:26;;;;;;;17.67;4.38;;;;;;;;;;5016437;28;20078;-85
2022/08/25 08:31:52;;;;;;;9.93;4.15;;;;;;;;;;5018916;28;20060;-86
2022/08/25 08:34:18;;;;;;;12.13;4.05;;;;;;;;;;5017833;28;20047;-86
2022/08/25 08:36:44;;;;;;;17.33;4.90;;;;;;;;;;5017197;28;20058;-86
2022/08/25 08:39:10;;;;;;;5.57;3.80;;;;;;;;;;5002050;28;20033;-86
2022/08/25 08:44:34;;;;;;;8.30;4.63;;;;;;;;;;4934564;28;20661;-86
2022/08/25 08:47:09;;;;;;;9.75;5.72;;;;;;;;;;5014820;28;20036;-86
2022/08/25 08:49:36;;;;;;;5.80;3.75;;;;;;;;;;5001193;28;20094;-86
2022/08/25 08:52:03;;;;;;;6.82;5.20;;;;;;;;;;5002194;28;20616;-86
2022/08/25 08:54:32;;;;;;;11.35;5.40;;;;;;;;;;5001245;28;20048;-86
2022/08/25 08:57:05;;;;;;;7.43;4.75;;;;;;;;;;5001103;28;20040;-87
2022/08/25 08:59:40;;;;;;;11.60;6.38;;;;;;;;;;5001087;28;20051;-86
2022/08/25 09:02:11;;;;;;;13.05;5.85;;;;;;;;;;4931790;28;20050;-87
2022/08/25 09:04:46;;;;;;;7.47;4.70;;;;;;;;;;4931354;28;20734;-85
2022/08/25 09:07:20;;;;;;;8.88;4.85;;;;;;;;;;5013290;28;20075;-86
2022/08/25 09:09:46;;;;;;;14.50;5.22;;;;;;;;;;4997547;28;20078;-86
2022/08/25 09:12:15;;;;;;;13.32;6.25;;;;;;;;;;5012196;28;20048;-86
2022/08/25 09:14:58;;;;;;;11.25;5.05;;;;;;;;;;4998311;28;20106;-85
2022/08/25 09:17:43;;;;;;;6.60;4.50;;;;;;;;;;4933169;28;20503;-86
2022/08/25 09:20:35;;;;;;;7.40;3.67;;;;;;;;;;5015027;28;20071;-86
2022/08/25 09:23:20;;;;;;;13.07;4.38;;;;;;;;;;4997150;28;20051;-85
2022/08/25 09:25:46;;;;;;;12.93;4.80;;;;;;;;;;5011022;28;20043;-85
2022/08/25 09:28:20;;;;;;;5.70;4.10;;;;;;;;;;4942282;28;20048;-86
2022/08/25 09:30:53;;;;;;;8.25;5.10;;;;;;;;;;5020518;28;20044;-86
2022/08/25 09:33:20;;;;;;;8.95;4.45;;;;;;;;;;4954456;28;20040;-85
2022/08/25 09:35:46;;;;;;;5.95;4.00;;;;;;;;;;5021258;28;20050;-86
2022/08/25 09:38:13;;;;;;;9.57;3.72;;;;;;;;;;4999558;28;20043;-85
2022/08/25 09:40:41;;;;;;;5.05;3.30;;;;;;;;;;5014037;28;20048;-85
2022/08/25 09:43:19;;;;;;;5.45;3.63;;;;;;;;;;5015922;28;20624;-85
2022/08/25 09:45:47;;;;;;;5.95;3.58;;;;;;;;;;4997478;28;20048;-86
2022/08/25 09:48:21;;;;;;;8.40;3.85;;;;;;;;;;4997949;28;20040;-87
2022/08/25 09:50:49;;;;;;;7.75;4.32;;;;;;;;;;4932078;28;20040;-85
2022/08/25 09:53:16;;;;;;;7.28;3.08;;;;;;;;;;4997848;28;20518;-85
2022/08/25 09:55:43;;;;;;;5.50;3.53;;;;;;;;;;5003488;28;20180;-85
2022/08/25 09:58:15;;;;;;;6.18;3.60;;;;;;;;;;4930995;28;20056;-86
2022/08/25 10:00:41;;;;;;;6.93;3.00;;;;;;;;;;4931978;28;20131;-86
2022/08/25 10:03:07;;;;;;;6.10;2.80;;;;;;;;;;4996767;28;20052;-86
2022/08/25 10:05:37;;;;;;;4.13;2.70;;;;;;;;;;5011057;28;20133;-86
2022/08/25 10:08:09;;;;;;;4.80;3.15;;;;;;;;;;4929584;28;20174;-86
2022/08/25 10:10:39;;;;;;;5.15;2.70;;;;;;;;;;5012237;28;20143;-86
2022/08/25 10:13:12;;;;;;;7.95;3.20;;;;;;;;;;5011135;28;20087;-86
2022/08/25 10:15:39;;;;;;;6.38;2.45;;;;;;;;;;4995046;28;20520;-86
2022/08/25 10:18:27;;;;;;;4.22;3.58;;;;;;;;;;5009427;28;20145;-86
2022/08/25 10:21:08;;;;;;;5.18;2.22;;;;;;;;;;5013621;28;20059;-86
2022/08/25 10:23:36;;;;;;;4.55;2.55;;;;;;;;;;5013068;28;20050;-86
2022/08/25 10:26:05;;;;;;;7.35;2.75;;;;;;;;;;5013815;28;20040;-86
2022/08/25 10:28:37;;;;;;;7.85;2.67;;;;;;;;;;4995952;28;20462;-86
2022/08/25 10:31:14;;;;;;;7.95;2.75;;;;;;;;;;5012377;28;20425;-86
2022/08/25 10:33:48;;;;;;;6.03;2.40;;;;;;;;;;4996533;28;20423;-86
2022/08/25 10:36:17;;;;;;;10.57;2.72;;;;;;;;;;5012563;28;20533;-86
2022/08/25 10:38:45;;;;;;;5.15;2.95;;;;;;;;;;5013128;28;20056;-87
2022/08/25 10:41:18;;;;;;;4.70;2.55;;;;;;;;;;4996580;28;20036;-85
2022/08/25 10:43:53;;;;;;;3.70;2.28;;;;;;;;;;4930141;28;20059;-86
2022/08/25 10:46:22;;;;;;;4.97;2.50;;;;;;;;;;4995243;28;20043;-86
2022/08/25 10:48:55;;;;;;;4.85;2.60;;;;;;;;;;4929888;28;20126;-86
2022/08/25 10:51:39;;;;;;;3.50;2.30;;;;;;;;;;5012582;28;20044;-86
2022/08/25 10:54:09;;;;;;;9.43;3.90;;;;;;;;;;5011819;28;20127;-86
2022/08/25 10:56:37;;;;;;;6.32;2.85;;;;;;;;;;5012019;28;20048;-86
2022/08/25 10:59:12;;;;;;;3.40;2.47;;;;;;;;;;4929396;28;20577;-86
2022/08/25 11:01:53;;;;;;;6.30;3.03;;;;;;;;;;4929622;28;20055;-87
2022/08/25 11:04:24;;;;;;;4.97;3.13;;;;;;;;;;5010193;28;20047;-87
2022/08/25 11:06:55;;;;;;;7.82;4.10;;;;;;;;;;4930246;28;20550;-85
2022/08/25 11:09:23;;;;;;;4.03;2.30;;;;;;;;;;5013058;28;20050;-86
2022/08/25 11:11:49;;;;;;;12.85;3.33;;;;;;;;;;4996092;28;20082;-87
2022/08/25 11:14:18;;;;;;;4.50;2.58;;;;;;;;;;4995274;28;20045;-86
2022/08/25 11:16:51;;;;;;;9.60;2.97;;;;;;;;;;5010837;28;20126;-86
2022/08/25 11:19:20;;;;;;;21.23;4.03;;;;;;;;;;4929866;28;20039;-85
2022/08/25 11:22:00;;;;;;;4.40;1.92;;;;;;;;;;4931468;28;20048;-86
2022/08/25 11:24:40;;;;;;;10.07;3.30;;;;;;;;;;5011100;28;20038;-85
2022/08/25 11:27:09;;;;;;;4.60;2.38;;;;;;;;;;4993743;28;20302;-86
2022/08/25 11:29:37;;;;;;;4.85;2.10;;;;;;;;;;4928915;28;20913;-86
2022/08/25 11:32:04;;;;;;;5.45;2.00;;;;;;;;;;4929531;28;20964;-86
2022/08/25 11:34:31;;;;;;;6.70;2.42;;;;;;;;;;5010782;28;20083;-86
2022/08/25 11:37:02;;;;;;;5.78;1.50;;;;;;;;;;5011008;28;20446;-86
2022/08/25 11:39:51;;;;;;;3.95;2.10;;;;;;;;;;4994967;28;20127;-85
2022/08/25 11:42:27;;;;;;;3.53;1.48;;;;;;;;;;4987235;28;20102;-86
2022/08/25 11:45:12;;;;;;;6.32;1.60;;;;;;;;;;5000943;28;20080;-85
2022/08/25 11:47:48;;;;;;;3.70;1.08;;;;;;;;;;5010067;28;20051;-86
2022/08/25 11:50:37;;;;;;;5.47;1.90;;;;;;;;;;5000738;28;20044;-87
2022/08/25 11:53:06;;;;;;;6.70;1.85;;;;;;;;;;4985939;28;20056;-87
2022/08/25 11:55:48;;;;;;;3.08;1.17;;;;;;;;;;4994052;28;20079;-85
2022/08/25 11:58:32;;;;;;;7.40;1.50;;;;;;;;;;5010814;28;20047;-86
2022/08/25 12:01:03;;;;;;;2.67;1.55;;;;;;;;;;4995044;28;20138;-87
2022/08/25 12:03:35;;;;;;;3.28;1.95;;;;;;;;;;5001987;28;20183;-86
2022/08/25 12:06:21;;;;;;;6.45;1.48;;;;;;;;;;5010928;28;20056;-85
2022/08/25 12:08:59;;;;;;;2.42;1.23;;;;;;;;;;4994676;28;20067;-86
2022/08/25 12:11:38;;;;;;;5.70;2.03;;;;;;;;;;5012529;28;20584;-86
2022/08/25 12:14:15;;;;;;;4.53;1.15;;;;;;;;;;4996198;28;20042;-87
2022/08/25 12:17:01;;;;;;;41.40;5.75;;;;;;;;;;4995126;28;20087;-87
2022/08/25 12:19:27;;;;;;;4.93;1.50;;;;;;;;;;4987957;28;20071;-85
2022/08/25 12:21:54;;;;;;;5.25;1.50;;;;;;;;;;5009025;28;20526;-86
2022/08/25 12:24:22;;;;;;;4.25;1.50;;;;;;;;;;5019698;28;20048;-86
2022/08/25 12:26:48;;;;;;;2.85;1.48;;;;;;;;;;5029122;28;20058;-87
2022/08/25 12:29:14;;;;;;;1.58;0.88;;;;;;;;;;5017678;28;21345;-86
2022/08/25 12:31:43;;;;;;;4.35;1.30;;;;;;;;;;5006390;28;20063;-86
2022/08/25 12:34:09;;;;;;;4.93;1.17;;;;;;;;;;5010888;28;20048;-86
2022/08/25 12:36:35;;;;;;;10.32;1.77;;;;;;;;;;4994552;28;20056;-86
2022/08/25 12:39:22;;;;;;;8.68;1.58;;;;;;;;;;5015012;28;20565;-86
2022/08/25 12:42:00;;;;;;;8.27;1.75;;;;;;;;;;5011858;28;20055;-86
2022/08/25 12:44:41;;;;;;;5.30;1.67;;;;;;;;;;4997883;28;20070;-86
2022/08/25 12:47:07;;;;;;;7.72;2.17;;;;;;;;;;4930845;28;20040;-86
2022/08/25 12:49:34;;;;;;;4.07;1.27;;;;;;;;;;4931532;28;20706;-86
2022/08/25 12:52:03;;;;;;;8.60;1.42;;;;;;;;;;5013802;28;20040;-86
2022/08/25 12:54:30;;;;;;;1.30;1.10;;;;;;;;;;4998011;28;20132;-86
2022/08/25 12:56:58;;;;;;;2.20;1.50;;;;;;;;;;4931094;28;20657;-85
2022/08/25 12:59:31;;;;;;;6.13;1.63;;;;;;;;;;5003398;28;20048;-86
2022/08/25 13:02:14;;;;;;;2.83;1.20;;;;;;;;;;4932361;28;20041;-86
2022/08/25 13:04:44;;;;;;;4.18;1.10;;;;;;;;;;5012488;28;20067;-87
2022/08/25 13:07:19;;;;;;;1.63;1.08;;;;;;;;;;5013191;28;20621;-87
2022/08/25 13:09:45;;;;;;;1.88;1.05;;;;;;;;;;4931485;28;20048;-86
2022/08/25 13:12:21;;;;;;;3.15;1.17;;;;;;;;;;5011558;28;20036;-87
2022/08/25 13:14:55;;;;;;;4.28;1.67;;;;;;;;;;5014192;28;20687;-86
2022/08/25 13:17:30;;;;;;;3.28;1.30;;;;;;;;;;4931391;28;20051;-86
2022/08/25 13:20:16;;;;;;;4.65;1.35;;;;;;;;;;5014075;28;20040;-87
2022/08/25 13:22:49;;;;;;;1.35;0.90;;;;;;;;;;4930990;28;20047;-87
2022/08/25 13:25:17;;;;;;;3.58;1.10;;;;;;;;;;5014255;28;20762;-86
2022/08/25 13:27:50;;;;;;;5.22;1.42;;;;;;;;;;4930774;28;20087;-86
2022/08/25 13:30:30;;;;;;;4.03;1.23;;;;;;;;;;5012656;28;20040;-86
2022/08/25 13:32:56;;;;;;;2.88;1.35;;;;;;;;;;4930894;28;20051;-86
2022/08/25 13:35:27;;;;;;;4.63;1.35;;;;;;;;;;4930197;28;20454;-86
2022/08/25 13:37:54;;;;;;;4.57;1.33;;;;;;;;;;4997740;28;20058;-85
2022/08/25 13:40:28;;;;;;;4.70;1.20;;;;;;;;;;4995331;28;20051;-84
2022/08/25 13:43:09;;;;;;;3.15;1.27;;;;;;;;;;4995796;28;20127;-83
2022/08/25 13:45:40;;;;;;;1.63;1.10;;;;;;;;;;5009806;28;20035;-83
2022/08/25 13:48:06;;;;;;;9.98;2.42;;;;;;;;;;5012643;28;20041;-84
2022/08/25 13:50:35;;;;;;;8.98;1.05;;;;;;;;;;5013289;28;20051;-84
2022/08/25 13:53:07;;;;;;;6.85;1.85;;;;;;;;;;4998706;28;20048;-84
2022/08/25 13:55:33;;;;;;;4.00;1.35;;;;;;;;;;5014905;28;20060;-84
2022/08/25 13:57:59;;;;;;;2.92;1.27;;;;;;;;;;5011219;28;20054;-84
2022/08/25 14:00:28;;;;;;;4.40;1.30;;;;;;;;;;4930372;28;20097;-84
2022/08/25 14:02:54;;;;;;;2.95;1.05;;;;;;;;;;4931259;28;20079;-84
2022/08/25 14:05:39;;;;;;;4.95;1.00;;;;;;;;;;5009459;28;20059;-83
2022/08/25 14:08:06;;;;;;;2.95;1.00;;;;;;;;;;5023674;28;20962;-84
2022/08/25 14:10:40;;;;;;;2.00;1.40;;;;;;;;;;5007720;28;20047;-84
2022/08/25 14:13:12;;;;;;;4.95;1.40;;;;;;;;;;5009185;28;20137;-83
2022/08/25 14:15:39;;;;;;;2.80;1.50;;;;;;;;;;5009791;28;20046;-83
2022/08/25 14:18:05;;;;;;;5.57;1.38;;;;;;;;;;5010354;28;20057;-84
2022/08/25 14:20:32;;;;;;;4.38;1.15;;;;;;;;;;5023817;28;20121;-83
2022/08/25 14:22:59;;;;;;;6.80;1.00;;;;;;;;;;5024816;28;20512;-84
2022/08/25 14:25:27;;;;;;;2.53;1.02;;;;;;;;;;5025417;28;20035;-86
2022/08/25 14:28:01;;;;;;;3.40;1.50;;;;;;;;;;5009749;28;20041;-85
2022/08/25 14:30:27;;;;;;;1.75;0.90;;;;;;;;;;5023556;28;20148;-84
2022/08/25 14:32:54;;;;;;;2.97;1.40;;;;;;;;;;5024273;28;20464;-84
2022/08/25 14:35:20;;;;;;;4.18;1.33;;;;;;;;;;5024090;28;20480;-84
2022/08/25 14:37:48;;;;;;;2.38;1.25;;;;;;;;;;5023654;28;20584;-84
2022/08/25 14:40:18;;;;;;;4.15;1.05;;;;;;;;;;5009246;28;20658;-83
2022/08/25 14:42:45;;;;;;;4.38;1.60;;;;;;;;;;5024887;28;20038;-84
2022/08/25 14:45:11;;;;;;;1.08;0.75;;;;;;;;;;5024671;28;20038;-83
2022/08/25 14:47:37;;;;;;;2.88;1.25;;;;;;;;;;5024347;28;20057;-85
2022/08/25 14:50:03;;;;;;;1.60;0.85;;;;;;;;;;5025345;28;20034;-83
2022/08/25 14:52:30;;;;;;;3.78;1.00;;;;;;;;;;5011188;28;20049;-84
2022/08/25 14:54:56;;;;;;;1.73;0.93;;;;;;;;;;5022897;28;21339;-84
2022/08/25 14:57:22;;;;;;;3.10;1.35;;;;;;;;;;5009505;28;20100;-85
2022/08/25 14:59:49;;;;;;;2.72;1.30;;;;;;;;;;5009058;28;20041;-84